Time;durP1;ratioP1;P1;durP2;ratioP2;P2;SDS_P1;SDS_P2;PMS_P1;PMS_P2;Temp;Humidity;BMP_temperature;BMP_pressure;BME280_temperature;BME280_humidity;BME280_pressure;Samples;Min_cycle;Max_cycle;Signal;HPM_P1;HPM_P2
2021/03/15 00:00:00;;;;;;;3.17;1.48;;;6.80;99.90;;;;;;5095293;28;20395;-81
2021/03/15 00:02:26;;;;;;;3.80;1.70;;;6.90;99.90;;;;;;5094448;28;20573;-81
2021/03/15 00:04:52;;;;;;;2.70;1.50;;;7.30;99.90;;;;;;5095406;28;20102;-81
2021/03/15 00:07:17;;;;;;;3.85;1.40;;;6.90;99.90;;;;;;5095441;28;20032;-81
2021/03/15 00:09:43;;;;;;;4.10;1.15;;;7.40;99.90;;;;;;5095662;28;20030;-81
2021/03/15 00:12:09;;;;;;;3.63;1.50;;;7.00;99.90;;;;;;5095449;28;20028;-82
2021/03/15 00:14:35;;;;;;;2.85;1.30;;;6.90;99.90;;;;;;5095259;28;20034;-81
2021/03/15 00:17:00;;;;;;;2.47;1.40;;;6.90;99.90;;;;;;5095181;28;20032;-81
2021/03/15 00:19:26;;;;;;;2.05;1.20;;;6.90;99.90;;;;;;5094618;28;20097;-81
2021/03/15 00:21:51;;;;;;;1.58;1.17;;;6.90;99.90;;;;;;5095385;28;20484;-81
2021/03/15 00:24:17;;;;;;;2.30;1.40;;;6.90;99.90;;;;;;5095242;28;20055;-81
2021/03/15 00:26:43;;;;;;;3.97;1.48;;;6.90;99.90;;;;;;5095011;28;20538;-81
2021/03/15 00:29:08;;;;;;;2.38;1.00;;;7.20;99.90;;;;;;5095259;28;20511;-81
2021/03/15 00:31:34;;;;;;;2.28;1.27;;;7.30;99.90;;;;;;5076287;28;20056;-81
2021/03/15 00:34:00;;;;;;;2.70;1.15;;;7.30;99.90;;;;;;5088113;28;20099;-81
2021/03/15 00:36:25;;;;;;;2.72;1.58;;;6.80;99.90;;;;;;5074674;28;20350;-82
2021/03/15 00:38:51;;;;;;;2.42;1.20;;;7.30;99.90;;;;;;5074737;28;20493;-82
2021/03/15 00:41:17;;;;;;;4.05;1.50;;;6.90;99.90;;;;;;5074656;28;20035;-82
2021/03/15 00:43:42;;;;;;;2.17;1.30;;;6.90;99.90;;;;;;5074414;28;20039;-81
2021/03/15 00:46:08;;;;;;;3.28;1.42;;;6.90;99.90;;;;;;5075035;28;20040;-81
2021/03/15 00:48:34;;;;;;;2.70;1.10;;;6.80;99.90;;;;;;5074968;28;20017;-81
2021/03/15 00:51:00;;;;;;;2.35;1.38;;;7.20;99.90;;;;;;5074600;28;20431;-81
2021/03/15 00:53:25;;;;;;;2.67;1.50;;;6.80;99.90;;;;;;5056355;28;20538;-81
2021/03/15 00:55:51;;;;;;;3.47;1.30;;;7.00;99.90;;;;;;5074341;28;20040;-81
2021/03/15 00:58:16;;;;;;;2.40;1.33;;;7.20;99.90;;;;;;5074697;28;20032;-82
2021/03/15 01:00:44;;;;;;;3.20;1.45;;;7.20;99.90;;;;;;5074256;28;20032;-82
2021/03/15 01:03:10;;;;;;;3.38;1.30;;;6.60;99.90;;;;;;5091881;28;20056;-82
2021/03/15 01:05:39;;;;;;;1.75;1.20;;;7.10;99.90;;;;;;5094221;28;20074;-82
2021/03/15 01:08:07;;;;;;;3.33;1.67;;;6.70;99.90;;;;;;5094415;28;20490;-81
2021/03/15 01:10:35;;;;;;;3.38;1.75;;;6.80;99.90;;;;;;5094255;28;20541;-81
2021/03/15 01:13:04;;;;;;;2.85;1.60;;;7.00;99.90;;;;;;5094309;28;20073;-81
2021/03/15 01:15:31;;;;;;;1.90;1.40;;;6.60;99.90;;;;;;5094047;28;20365;-81
2021/03/15 01:17:57;;;;;;;2.58;1.40;;;6.80;99.90;;;;;;5075303;28;20391;-81
2021/03/15 01:20:23;;;;;;;3.63;1.40;;;6.80;99.90;;;;;;5093782;28;20028;-81
2021/03/15 01:22:55;;;;;;;2.70;1.40;;;6.70;99.90;;;;;;5093785;28;20069;-81
2021/03/15 01:25:41;;;;;;;1.77;1.50;;;7.10;99.90;;;;;;5093954;28;20034;-81
2021/03/15 01:28:10;;;;;;;2.33;1.65;;;6.60;99.90;;;;;;5093594;28;20020;-81
2021/03/15 01:30:38;;;;;;;3.00;1.50;;;6.50;99.90;;;;;;5093378;28;20024;-81
2021/03/15 01:33:04;;;;;;;2.20;1.50;;;6.40;99.90;;;;;;5093812;28;20028;-81
2021/03/15 01:35:30;;;;;;;3.47;1.65;;;6.40;99.90;;;;;;5093757;28;20077;-81
2021/03/15 01:37:57;;;;;;;2.33;1.48;;;6.40;99.90;;;;;;5075779;28;20028;-81
2021/03/15 01:40:24;;;;;;;2.55;1.50;;;6.40;99.90;;;;;;5093852;28;20031;-81
2021/03/15 01:42:50;;;;;;;1.83;1.65;;;6.30;99.90;;;;;;5093385;28;20384;-81
2021/03/15 01:45:16;;;;;;;2.33;1.58;;;6.40;99.90;;;;;;5092976;28;20478;-81
2021/03/15 01:47:43;;;;;;;3.25;1.60;;;6.40;99.90;;;;;;5092809;28;20035;-81
2021/03/15 01:50:11;;;;;;;2.17;1.65;;;6.90;99.90;;;;;;5093665;28;20035;-81
2021/03/15 01:52:38;;;;;;;2.30;1.30;;;6.50;99.90;;;;;;5093569;28;20020;-81
2021/03/15 01:55:06;;;;;;;1.58;1.40;;;6.40;99.90;;;;;;5093462;28;20020;-81
2021/03/15 01:57:32;;;;;;;2.15;1.48;;;6.50;99.90;;;;;;5093772;28;20384;-81
2021/03/15 01:59:58;;;;;;;2.83;1.58;;;6.60;99.90;;;;;;5092719;28;20036;-81
2021/03/15 02:02:25;;;;;;;1.95;1.20;;;6.70;99.90;;;;;;5093266;28;20036;-81
2021/03/15 02:04:51;;;;;;;2.45;1.42;;;7.00;99.90;;;;;;5093324;28;20398;-81
2021/03/15 02:07:17;;;;;;;1.73;1.50;;;7.20;99.90;;;;;;5093303;28;20103;-81
2021/03/15 02:09:43;;;;;;;2.13;1.60;;;6.70;99.90;;;;;;5093338;28;20034;-81
2021/03/15 02:12:17;;;;;;;3.30;1.48;;;7.10;99.90;;;;;;5093034;28;20023;-81
2021/03/15 02:15:01;;;;;;;2.13;1.50;;;7.10;99.90;;;;;;5092862;28;20020;-81
2021/03/15 02:18:06;;;;;;;2.47;1.77;;;6.60;99.90;;;;;;5092442;28;20062;-81
2021/03/15 02:20:38;;;;;;;3.53;1.63;;;6.70;99.90;;;;;;5087845;28;20043;-81
2021/03/15 02:23:35;;;;;;;3.15;1.70;;;7.30;99.90;;;;;;5092816;28;20081;-82
2021/03/15 02:26:12;;;;;;;3.50;1.60;;;6.70;99.90;;;;;;5092947;28;20028;-82
2021/03/15 02:28:47;;;;;;;3.20;1.80;;;6.80;99.90;;;;;;5093098;28;20082;-82
2021/03/15 02:31:27;;;;;;;2.95;1.80;;;7.10;99.90;;;;;;5078613;28;20024;-82
2021/03/15 02:34:30;;;;;;;2.55;1.52;;;6.80;99.90;;;;;;5079139;28;20095;-82
2021/03/15 02:36:58;;;;;;;4.53;1.70;;;6.80;99.90;;;;;;5092721;28;20035;-82
2021/03/15 02:39:29;;;;;;;4.57;1.77;;;6.90;99.90;;;;;;5092863;28;20079;-82
2021/03/15 02:42:01;;;;;;;2.38;1.40;;;7.30;99.90;;;;;;5092944;28;20387;-82
2021/03/15 02:44:28;;;;;;;3.38;1.50;;;6.80;99.90;;;;;;5091949;28;20095;-81
2021/03/15 02:46:55;;;;;;;2.40;1.42;;;6.80;99.90;;;;;;5093009;28;20024;-81
2021/03/15 02:49:23;;;;;;;4.55;1.85;;;6.80;99.90;;;;;;5093153;28;20021;-81
2021/03/15 02:51:52;;;;;;;2.20;1.55;;;7.30;99.90;;;;;;5092372;28;20364;-81
2021/03/15 02:54:19;;;;;;;4.03;1.60;;;6.80;99.90;;;;;;5092749;28;20024;-81
2021/03/15 02:56:47;;;;;;;3.67;1.80;;;6.90;99.90;;;;;;5093022;28;20070;-82
2021/03/15 02:59:14;;;;;;;4.18;2.05;;;6.90;99.90;;;;;;5096440;28;20039;-82
2021/03/15 03:01:42;;;;;;;5.55;2.17;;;7.30;99.90;;;;;;5096769;28;20441;-82
2021/03/15 03:04:10;;;;;;;7.10;2.05;;;7.20;99.90;;;;;;5096456;28;20052;-82
2021/03/15 03:06:39;;;;;;;3.63;1.92;;;6.80;99.90;;;;;;5096185;28;20028;-82
2021/03/15 03:09:07;;;;;;;3.80;1.88;;;7.30;99.90;;;;;;5096408;28;20112;-81
2021/03/15 03:11:34;;;;;;;4.60;1.88;;;6.90;99.90;;;;;;5096613;28;20077;-82
2021/03/15 03:14:00;;;;;;;5.35;2.30;;;7.10;99.90;;;;;;5096056;28;20020;-82
2021/03/15 03:16:33;;;;;;;4.25;2.03;;;7.30;99.90;;;;;;5096484;28;20391;-82
2021/03/15 03:19:00;;;;;;;5.15;2.20;;;6.90;99.90;;;;;;5096368;28;20403;-82
2021/03/15 03:21:27;;;;;;;3.70;2.08;;;7.20;99.90;;;;;;5096082;28;20032;-82
2021/03/15 03:23:56;;;;;;;3.60;1.90;;;7.60;99.90;;;;;;5096251;28;20476;-81
2021/03/15 03:26:24;;;;;;;4.40;2.03;;;7.60;99.90;;;;;;5096228;28;20031;-81
2021/03/15 03:28:53;;;;;;;7.95;2.20;;;7.40;99.90;;;;;;5096242;28;20032;-82
2021/03/15 03:31:19;;;;;;;5.28;2.00;;;7.40;99.90;;;;;;5096335;28;20027;-82
2021/03/15 03:33:46;;;;;;;5.43;1.90;;;7.30;99.90;;;;;;5096128;28;20488;-82
2021/03/15 03:36:12;;;;;;;5.18;1.85;;;7.60;99.90;;;;;;5095392;28;20169;-82
2021/03/15 03:38:39;;;;;;;4.40;2.20;;;7.10;99.90;;;;;;5096144;28;20571;-82
2021/03/15 03:41:05;;;;;;;5.20;2.03;;;7.00;99.90;;;;;;5095568;28;20028;-82
2021/03/15 03:43:30;;;;;;;4.78;2.05;;;7.30;99.90;;;;;;5095725;28;20428;-82
2021/03/15 03:45:56;;;;;;;4.75;2.45;;;7.10;99.90;;;;;;5095875;28;20025;-82
2021/03/15 03:48:21;;;;;;;4.70;2.60;;;7.10;99.90;;;;;;5095798;28;20031;-82
2021/03/15 03:50:47;;;;;;;5.90;2.42;;;7.40;99.90;;;;;;5095746;28;20028;-82
2021/03/15 03:53:35;;;;;;;5.68;2.75;;;7.50;99.90;;;;;;5095666;28;20024;-82
2021/03/15 03:56:17;;;;;;;6.40;2.88;;;7.30;99.90;;;;;;5095594;28;20032;-82
2021/03/15 03:58:49;;;;;;;6.30;2.92;;;7.50;99.90;;;;;;5095422;28;20484;-82
2021/03/15 04:01:18;;;;;;;5.53;3.15;;;7.10;99.90;;;;;;5095337;28;20024;-82
2021/03/15 04:03:49;;;;;;;7.18;2.63;;;7.50;99.90;;;;;;5095390;28;20127;-82
2021/03/15 04:06:17;;;;;;;6.18;2.58;;;7.50;99.90;;;;;;5094488;28;20500;-82
2021/03/15 04:08:50;;;;;;;6.13;3.08;;;7.10;99.90;;;;;;5079954;28;20396;-82
2021/03/15 04:11:19;;;;;;;5.63;2.80;;;7.20;99.90;;;;;;5074863;28;20025;-82
2021/03/15 04:13:49;;;;;;;5.32;2.75;;;7.60;99.90;;;;;;5075240;28;20095;-82
2021/03/15 04:16:17;;;;;;;8.57;3.00;;;7.20;99.90;;;;;;5075043;28;20398;-82
2021/03/15 04:18:47;;;;;;;7.57;2.60;;;7.30;99.90;;;;;;5075072;28;20051;-82
2021/03/15 04:21:17;;;;;;;9.30;3.00;;;7.20;99.90;;;;;;5065365;28;20209;-82
2021/03/15 04:23:46;;;;;;;6.00;2.90;;;7.60;99.90;;;;;;5095402;28;20438;-82
2021/03/15 04:26:13;;;;;;;6.75;2.67;;;7.40;99.90;;;;;;5094623;28;20490;-82
2021/03/15 04:28:39;;;;;;;5.05;2.72;;;7.00;99.90;;;;;;5077047;28;20028;-82
2021/03/15 04:31:08;;;;;;;6.05;3.22;;;7.00;99.90;;;;;;5094963;28;20027;-83
2021/03/15 04:33:36;;;;;;;6.43;2.85;;;7.50;99.90;;;;;;5095001;28;20031;-83
2021/03/15 04:36:04;;;;;;;8.27;2.97;;;7.50;99.90;;;;;;5094424;28;20430;-83
2021/03/15 04:38:31;;;;;;;5.80;2.50;;;7.20;99.90;;;;;;5094780;28;20145;-82
2021/03/15 04:40:57;;;;;;;8.05;2.80;;;7.10;99.90;;;;;;5094542;28;20076;-82
2021/03/15 04:43:24;;;;;;;7.07;2.70;;;6.90;99.90;;;;;;5076647;28;20044;-82
2021/03/15 04:45:50;;;;;;;8.07;2.80;;;7.30;99.90;;;;;;5094811;28;20024;-82
2021/03/15 04:48:21;;;;;;;7.80;2.85;;;7.10;99.90;;;;;;5076280;28;20020;-82
2021/03/15 04:50:51;;;;;;;13.63;3.22;;;7.10;99.90;;;;;;5094020;28;20024;-82
2021/03/15 04:53:18;;;;;;;11.25;2.53;;;7.40;99.90;;;;;;5094573;28;20024;-82
2021/03/15 04:55:44;;;;;;;14.40;3.10;;;7.30;99.90;;;;;;5094330;28;20396;-82
2021/03/15 04:58:12;;;;;;;10.90;3.13;;;6.90;99.90;;;;;;5094494;28;20032;-82
2021/03/15 05:00:40;;;;;;;12.45;2.80;;;6.90;99.90;;;;;;5094365;28;20028;-82
2021/03/15 05:03:07;;;;;;;9.90;2.70;;;6.90;99.90;;;;;;5094281;28;20046;-82
2021/03/15 05:05:35;;;;;;;8.35;2.55;;;7.10;99.90;;;;;;5075218;28;20471;-82
2021/03/15 05:08:04;;;;;;;11.32;2.35;;;6.80;99.90;;;;;;5094279;28;20103;-82
2021/03/15 05:10:31;;;;;;;11.88;3.10;;;7.30;99.90;;;;;;5094029;28;20062;-82
2021/03/15 05:12:59;;;;;;;10.45;2.88;;;6.80;99.90;;;;;;5093903;28;20042;-82
2021/03/15 05:15:25;;;;;;;9.10;2.90;;;6.80;99.90;;;;;;5093823;28;20032;-82
2021/03/15 05:17:51;;;;;;;11.02;2.92;;;6.70;99.90;;;;;;5081783;28;20071;-82
2021/03/15 05:20:17;;;;;;;14.02;3.13;;;7.20;99.90;;;;;;5091062;28;20055;-81
2021/03/15 05:22:44;;;;;;;13.52;2.92;;;6.70;99.90;;;;;;5076826;28;20435;-82
2021/03/15 05:25:12;;;;;;;11.38;2.45;;;6.60;99.90;;;;;;5090209;28;20027;-82
2021/03/15 05:27:42;;;;;;;10.32;2.60;;;6.90;99.90;;;;;;5093758;28;20027;-83
2021/03/15 05:30:11;;;;;;;10.13;3.35;;;6.60;99.90;;;;;;5093765;28;20149;-83
2021/03/15 05:32:39;;;;;;;11.60;2.80;;;6.60;99.90;;;;;;5074427;28;20028;-83
2021/03/15 05:35:06;;;;;;;14.18;3.10;;;6.90;99.90;;;;;;5082982;28;20044;-82
2021/03/15 05:37:32;;;;;;;10.52;2.92;;;6.40;99.90;;;;;;5092296;28;20387;-82
2021/03/15 05:39:58;;;;;;;10.73;2.70;;;6.20;99.90;;;;;;5093261;28;20141;-82
2021/03/15 05:42:47;;;;;;;7.50;2.22;;;6.20;99.90;;;;;;5075536;28;20020;-82
2021/03/15 05:45:37;;;;;;;8.48;2.42;;;6.20;99.90;;;;;;5093609;28;20135;-82
2021/03/15 05:48:23;;;;;;;7.95;2.70;;;6.30;99.90;;;;;;5093821;28;20388;-82
2021/03/15 05:51:13;;;;;;;9.07;3.15;;;6.40;99.90;;;;;;4991445;28;20043;-82
2021/03/15 05:54:11;;;;;;;13.07;3.88;;;6.40;99.90;;;;;;4991437;28;20022;-82
2021/03/15 05:56:54;;;;;;;12.75;3.95;;;6.50;99.90;;;;;;4933205;29;20048;-82
2021/03/15 05:59:25;;;;;;;12.57;3.45;;;6.50;99.90;;;;;;4933598;29;20032;-82
2021/03/15 06:02:41;;;;;;;11.07;2.90;;;7.00;99.90;;;;;;4934035;29;20031;-82
2021/03/15 06:05:17;;;;;;;9.68;2.63;;;6.40;99.90;;;;;;4895397;29;20139;-82
2021/03/15 06:07:48;;;;;;;8.43;2.60;;;6.40;99.90;;;;;;4895530;29;20112;-82
2021/03/15 06:10:19;;;;;;;8.43;2.17;;;6.60;99.90;;;;;;4895552;29;20205;-82
2021/03/15 06:13:01;;;;;;;9.02;3.00;;;6.10;99.90;;;;;;4879502;29;20155;-82
2021/03/15 06:15:36;;;;;;;10.10;2.78;;;6.20;99.90;;;;;;4877222;29;20037;-82
2021/03/15 06:18:06;;;;;;;12.45;3.45;;;6.60;99.90;;;;;;4877355;29;20029;-82
2021/03/15 06:20:34;;;;;;;11.45;3.03;;;6.40;99.90;;;;;;4893948;29;20036;-82
2021/03/15 06:23:00;;;;;;;11.00;2.53;;;6.70;99.90;;;;;;4882738;29;20115;-82
2021/03/15 06:25:29;;;;;;;4.85;2.38;;;6.60;99.90;;;;;;4892546;29;20135;-83
2021/03/15 06:27:56;;;;;;;5.72;2.13;;;6.30;99.90;;;;;;4905393;29;20516;-82
2021/03/15 06:30:23;;;;;;;5.95;2.28;;;6.80;99.90;;;;;;4914514;29;20584;-82
2021/03/15 06:32:55;;;;;;;4.72;1.75;;;6.30;99.90;;;;;;4948242;28;20419;-83
2021/03/15 06:35:24;;;;;;;5.13;2.40;;;6.70;99.90;;;;;;4979979;28;20061;-82
2021/03/15 06:37:50;;;;;;;4.85;2.20;;;6.70;99.90;;;;;;4990914;28;20117;-82
2021/03/15 06:40:18;;;;;;;8.23;2.55;;;6.90;99.90;;;;;;5037359;28;20119;-82
2021/03/15 06:42:45;;;;;;;4.97;2.30;;;6.50;99.90;;;;;;5092273;28;20020;-82
2021/03/15 06:45:15;;;;;;;3.80;2.22;;;6.50;99.90;;;;;;5091888;28;20020;-82
2021/03/15 06:47:41;;;;;;;5.32;2.60;;;6.40;99.90;;;;;;5086406;28;20379;-83
2021/03/15 06:50:09;;;;;;;4.78;1.92;;;6.90;99.90;;;;;;5090294;28;20028;-83
2021/03/15 06:52:53;;;;;;;6.03;2.10;;;6.30;99.90;;;;;;5091900;28;20021;-83
2021/03/15 06:55:19;;;;;;;5.68;2.45;;;6.40;99.90;;;;;;5092774;28;20399;-82
2021/03/15 06:57:45;;;;;;;4.43;2.83;;;6.50;99.90;;;;;;5092261;28;20025;-82
2021/03/15 07:00:12;;;;;;;8.43;3.13;;;6.90;99.90;;;;;;5086730;28;20038;-83
2021/03/15 07:02:37;;;;;;;6.10;2.90;;;6.40;99.90;;;;;;5087010;28;20070;-83
2021/03/15 07:05:14;;;;;;;5.60;3.17;;;6.50;99.90;;;;;;5092030;28;20052;-83
2021/03/15 07:07:54;;;;;;;6.53;2.15;;;6.50;99.90;;;;;;5091984;28;20024;-83
2021/03/15 07:10:32;;;;;;;5.65;2.80;;;6.50;99.90;;;;;;5092610;28;20028;-83
2021/03/15 07:13:19;;;;;;;10.27;3.45;;;6.80;99.90;;;;;;5092311;28;20426;-84
2021/03/15 07:16:20;;;;;;;5.22;2.75;;;6.60;99.90;;;;;;5073785;28;20384;-84
2021/03/15 07:18:46;;;;;;;8.85;2.67;;;6.70;99.90;;;;;;5074379;28;20561;-83
2021/03/15 07:21:11;;;;;;;7.50;2.83;;;6.90;99.90;;;;;;5084915;28;20103;-83
2021/03/15 07:23:45;;;;;;;7.68;2.70;;;6.80;99.90;;;;;;5078623;28;20514;-82
2021/03/15 07:26:22;;;;;;;6.82;2.78;;;6.80;99.90;;;;;;5087745;28;20083;-83
2021/03/15 07:28:49;;;;;;;8.52;3.00;;;7.00;99.90;;;;;;5080851;28;20100;-83
2021/03/15 07:31:17;;;;;;;7.15;3.33;;;7.00;99.90;;;;;;5082984;28;20024;-83
2021/03/15 07:33:45;;;;;;;8.88;3.28;;;7.00;99.90;;;;;;5067650;28;20024;-83
2021/03/15 07:36:14;;;;;;;7.90;3.33;;;7.00;99.90;;;;;;5070668;28;20462;-84
2021/03/15 07:38:39;;;;;;;7.28;3.05;;;7.40;99.90;;;;;;5084013;28;20573;-83
2021/03/15 07:41:16;;;;;;;6.93;3.30;;;7.00;99.90;;;;;;5076167;28;20059;-83
2021/03/15 07:43:42;;;;;;;6.20;3.10;;;7.20;99.90;;;;;;5082158;28;20020;-84
2021/03/15 07:46:23;;;;;;;5.15;3.15;;;7.10;99.90;;;;;;5087639;28;20016;-84
2021/03/15 07:48:50;;;;;;;7.45;2.90;;;7.10;99.90;;;;;;5090210;28;20021;-84
2021/03/15 07:51:37;;;;;;;4.55;3.05;;;7.40;99.90;;;;;;5082475;28;20025;-83
2021/03/15 07:54:08;;;;;;;6.68;3.20;;;7.00;99.90;;;;;;5090448;28;20514;-83
2021/03/15 07:56:34;;;;;;;9.52;3.05;;;7.10;99.90;;;;;;5083082;28;20117;-83
2021/03/15 07:59:00;;;;;;;4.93;2.97;;;7.20;99.90;;;;;;5082472;28;20146;-85
2021/03/15 08:01:26;;;;;;;5.70;2.72;;;7.50;99.90;;;;;;5092480;28;20051;-83
2021/03/15 08:03:52;;;;;;;8.73;3.38;;;7.50;99.90;;;;;;5083846;28;20511;-84
2021/03/15 08:06:21;;;;;;;9.50;3.13;;;7.60;99.90;;;;;;5075471;28;20099;-84
2021/03/15 08:08:47;;;;;;;6.32;3.20;;;7.40;99.90;;;;;;5059700;28;20016;-84
2021/03/15 08:11:15;;;;;;;6.90;3.45;;;7.50;99.90;;;;;;5091024;28;20034;-83
2021/03/15 08:13:47;;;;;;;8.88;4.93;;;7.20;99.90;;;;;;5075243;28;20025;-91
2021/03/15 08:16:14;;;;;;;7.10;2.42;;;7.30;99.90;;;;;;5056942;28;20032;-81
2021/03/15 08:18:44;;;;;;;6.43;2.55;;;7.70;99.90;;;;;;5075111;28;20020;-89
2021/03/15 08:21:12;;;;;;;10.40;3.25;;;7.20;99.90;;;;;;5074993;28;20098;-82
2021/03/15 08:23:48;;;;;;;7.40;2.90;;;7.00;99.90;;;;;;5075169;28;20017;-81
2021/03/15 08:26:15;;;;;;;8.40;2.88;;;7.10;99.90;;;;;;5074654;28;20108;-81
2021/03/15 08:28:43;;;;;;;7.65;2.40;;;7.30;99.90;;;;;;5075039;28;20027;-81
2021/03/15 08:31:29;;;;;;;7.03;2.35;;;7.70;99.90;;;;;;5056931;28;20059;-82
2021/03/15 08:33:55;;;;;;;7.60;2.55;;;7.20;99.90;;;;;;5063004;28;20479;-82
2021/03/15 08:36:21;;;;;;;6.63;2.78;;;7.60;99.90;;;;;;5094298;28;20430;-82
2021/03/15 08:38:47;;;;;;;6.97;2.78;;;7.60;99.90;;;;;;5095003;28;20016;-82
2021/03/15 08:41:23;;;;;;;7.55;2.75;;;7.60;99.90;;;;;;5094536;28;20047;-81
2021/03/15 08:43:51;;;;;;;7.47;2.85;;;7.50;99.90;;;;;;5094986;28;20020;-81
2021/03/15 08:46:19;;;;;;;8.05;2.75;;;7.50;99.90;;;;;;5094901;28;20024;-81
2021/03/15 08:48:51;;;;;;;7.97;2.83;;;7.50;99.90;;;;;;5093885;28;20027;-81
2021/03/15 08:51:47;;;;;;;6.80;2.60;;;7.50;99.90;;;;;;5063382;28;20020;-81
2021/03/15 08:54:14;;;;;;;5.10;2.58;;;7.70;99.90;;;;;;5073567;28;20426;-81
2021/03/15 08:56:44;;;;;;;5.15;2.10;;;7.70;99.90;;;;;;5094640;28;20028;-82
2021/03/15 08:59:11;;;;;;;6.78;2.03;;;7.40;99.90;;;;;;5076444;28;20470;-81
2021/03/15 09:01:42;;;;;;;5.63;2.20;;;7.30;99.90;;;;;;5094088;28;20020;-81
2021/03/15 09:04:08;;;;;;;6.85;2.40;;;7.70;99.90;;;;;;5093730;28;20094;-82
2021/03/15 09:06:36;;;;;;;6.50;2.72;;;7.70;99.90;;;;;;5093727;28;20047;-81
2021/03/15 09:09:09;;;;;;;11.15;3.20;;;7.50;99.90;;;;;;5093667;28;20020;-82
2021/03/15 09:11:34;;;;;;;8.65;3.05;;;7.40;99.90;;;;;;5093749;28;20028;-82
2021/03/15 09:16:49;;;;;;;8.00;2.35;;;7.70;99.90;;;;;;5093389;28;20063;-82
2021/03/15 09:19:31;;;;;;;3.85;1.83;;;7.40;99.90;;;;;;5093036;28;20019;-82
2021/03/15 09:22:02;;;;;;;6.55;2.70;;;7.50;99.90;;;;;;5094335;28;20115;-82
2021/03/15 09:24:35;;;;;;;10.43;5.05;;;7.20;99.90;;;;;;5075721;28;20507;-82
2021/03/15 09:27:06;;;;;;;7.03;2.13;;;7.50;99.90;;;;;;5094154;28;20361;-82
2021/03/15 09:29:34;;;;;;;7.38;2.22;;;7.60;99.90;;;;;;5094101;28;20368;-82
2021/03/15 09:32:02;;;;;;;4.63;2.03;;;7.70;99.90;;;;;;5093749;28;20035;-82
2021/03/15 09:34:28;;;;;;;4.72;2.40;;;8.20;99.90;;;;;;5093006;28;20530;-82
2021/03/15 09:36:58;;;;;;;9.82;2.80;;;7.90;99.90;;;;;;5093954;28;20016;-82
2021/03/15 09:39:25;;;;;;;9.60;2.67;;;7.90;99.90;;;;;;5093583;28;20044;-82
2021/03/15 09:41:51;;;;;;;4.78;2.55;;;7.90;99.90;;;;;;5093782;28;20070;-82
2021/03/15 09:44:31;;;;;;;6.20;2.25;;;8.10;99.90;;;;;;5093516;28;20020;-82
2021/03/15 09:46:58;;;;;;;7.95;2.38;;;7.90;99.90;;;;;;5093294;28;20024;-83
2021/03/15 09:49:39;;;;;;;6.20;2.40;;;7.90;99.90;;;;;;5092769;28;20455;-83
2021/03/15 09:52:15;;;;;;;16.13;8.75;;;8.00;99.90;;;;;;5092979;28;20043;-83
2021/03/15 09:54:43;;;;;;;7.32;3.83;;;7.90;99.90;;;;;;5093521;28;20020;-82
2021/03/15 09:57:10;;;;;;;5.85;3.13;;;8.00;99.90;;;;;;5093369;28;20008;-82
2021/03/15 09:59:37;;;;;;;6.63;2.60;;;8.00;99.90;;;;;;5092822;28;20028;-83
2021/03/15 10:02:04;;;;;;;10.15;5.03;;;7.90;99.90;;;;;;5093299;28;20430;-83
2021/03/15 10:04:34;;;;;;;9.23;2.58;;;7.80;99.90;;;;;;5092377;28;20403;-82
2021/03/15 10:07:07;;;;;;;6.32;2.38;;;7.70;99.90;;;;;;5092875;28;20013;-82
2021/03/15 10:09:38;;;;;;;5.45;2.72;;;7.60;99.90;;;;;;5093291;28;20048;-82
2021/03/15 10:12:04;;;;;;;6.88;2.40;;;7.80;99.90;;;;;;5093497;28;20016;-82
2021/03/15 10:14:29;;;;;;;8.73;2.88;;;7.70;99.90;;;;;;5092783;28;20438;-82
2021/03/15 10:17:03;;;;;;;8.57;3.30;;;7.70;99.90;;;;;;5093154;28;20046;-82
2021/03/15 10:19:30;;;;;;;9.93;3.33;;;7.90;99.90;;;;;;5092878;28;20031;-83
2021/03/15 10:22:18;;;;;;;11.77;3.92;;;7.80;99.90;;;;;;5092006;28;20065;-82
2021/03/15 10:24:45;;;;;;;5.07;3.15;;;7.80;99.90;;;;;;5093249;28;20063;-82
2021/03/15 10:27:25;;;;;;;10.45;3.50;;;7.90;99.90;;;;;;5093130;28;20028;-82
2021/03/15 10:29:55;;;;;;;9.50;2.95;;;8.00;99.90;;;;;;5092364;28;20099;-82
2021/03/15 10:32:27;;;;;;;16.23;6.80;;;8.10;99.90;;;;;;5093205;28;20024;-83
2021/03/15 10:34:55;;;;;;;10.85;4.80;;;8.10;99.90;;;;;;5077960;28;20032;-82
2021/03/15 10:37:23;;;;;;;9.45;3.60;;;8.00;99.90;;;;;;5062095;28;20032;-82
2021/03/15 10:39:50;;;;;;;13.02;5.05;;;8.10;99.90;;;;;;5092708;28;20031;-82
2021/03/15 10:42:21;;;;;;;14.85;4.68;;;7.90;99.90;;;;;;5074687;28;20024;-82
2021/03/15 10:44:48;;;;;;;14.05;4.88;;;7.90;99.90;;;;;;5092852;28;20024;-82
2021/03/15 10:47:15;;;;;;;10.43;4.10;;;8.00;99.90;;;;;;5092691;28;20024;-82
2021/03/15 10:49:42;;;;;;;10.68;4.68;;;8.00;99.90;;;;;;5092850;28;20012;-82
2021/03/15 10:52:24;;;;;;;14.20;4.85;;;8.20;99.90;;;;;;5090910;28;20380;-81
2021/03/15 10:54:50;;;;;;;10.15;4.40;;;8.10;99.90;;;;;;5092911;28;20020;-81
2021/03/15 10:57:18;;;;;;;13.02;6.63;;;8.20;99.90;;;;;;5092574;28;20020;-82
2021/03/15 10:59:45;;;;;;;7.68;2.80;;;8.00;99.90;;;;;;5074384;28;20032;-82
2021/03/15 11:02:19;;;;;;;7.22;2.55;;;7.90;99.90;;;;;;5092461;28;20012;-80
2021/03/15 11:04:55;;;;;;;7.65;3.10;;;7.90;99.90;;;;;;5092785;28;20084;-80
2021/03/15 11:07:35;;;;;;;8.82;2.97;;;8.00;99.90;;;;;;5092377;28;20099;-80
2021/03/15 11:10:15;;;;;;;7.38;2.33;;;8.30;99.90;;;;;;5092663;28;20028;-82
2021/03/15 11:12:43;;;;;;;16.63;9.80;;;8.10;99.90;;;;;;5092123;28;20028;-81
2021/03/15 11:15:16;;;;;;;3.10;1.90;;;8.20;99.90;;;;;;5092624;28;20016;-80
2021/03/15 11:17:55;;;;;;;5.78;2.60;;;8.00;99.90;;;;;;5091074;28;20106;-80
2021/03/15 11:20:52;;;;;;;6.13;2.80;;;8.10;99.90;;;;;;5078894;28;20112;-82
2021/03/15 11:23:30;;;;;;;39.05;20.73;;;8.10;99.90;;;;;;5077980;28;20393;-81
2021/03/15 11:26:17;;;;;;;24.25;10.75;;;8.20;99.90;;;;;;5077585;28;20024;-81
2021/03/15 11:28:46;;;;;;;10.27;4.43;;;8.20;99.90;;;;;;5095665;28;20495;-82
2021/03/15 11:31:17;;;;;;;11.20;5.72;;;8.30;99.90;;;;;;5095943;28;20024;-83
2021/03/15 11:33:53;;;;;;;10.23;6.95;;;8.20;99.90;;;;;;5095847;28;20027;-82
2021/03/15 11:36:21;;;;;;;6.93;4.53;;;8.20;99.90;;;;;;5076953;28;20073;-82
2021/03/15 11:38:49;;;;;;;10.07;6.85;;;8.60;99.90;;;;;;5058131;28;20048;-82
2021/03/15 11:41:20;;;;;;;11.50;5.55;;;8.40;99.90;;;;;;5093858;28;20016;-83
2021/03/15 11:43:46;;;;;;;6.97;3.03;;;8.50;99.90;;;;;;5095205;28;20024;-82
2021/03/15 11:46:12;;;;;;;8.63;5.80;;;8.60;99.90;;;;;;5095965;28;20062;-82
2021/03/15 11:48:37;;;;;;;7.78;3.40;;;8.60;99.90;;;;;;5088817;28;20028;-82
2021/03/15 11:51:05;;;;;;;4.72;3.03;;;8.50;99.90;;;;;;5095242;28;20024;-81
2021/03/15 11:53:31;;;;;;;6.30;3.58;;;8.50;99.90;;;;;;5095238;28;20020;-82
2021/03/15 11:55:56;;;;;;;5.53;4.30;;;8.40;99.90;;;;;;5088514;28;20361;-82
2021/03/15 11:58:22;;;;;;;10.43;7.78;;;8.90;99.90;;;;;;5094246;28;20035;-81
2021/03/15 12:00:47;;;;;;;9.20;7.70;;;8.90;99.90;;;;;;5085136;28;20027;-81
2021/03/15 12:03:13;;;;;;;8.00;5.82;;;8.90;99.90;;;;;;5094999;28;20036;-81
2021/03/15 12:05:39;;;;;;;5.60;4.38;;;8.70;99.90;;;;;;5095643;28;20020;-82
2021/03/15 12:08:05;;;;;;;6.68;3.67;;;8.70;99.90;;;;;;5095652;28;20477;-82
2021/03/15 12:10:33;;;;;;;7.30;4.70;;;8.80;99.90;;;;;;5094856;28;20031;-82
2021/03/15 12:12:59;;;;;;;6.03;4.43;;;9.00;99.90;;;;;;5095301;28;20024;-82
2021/03/15 12:15:25;;;;;;;9.52;8.13;;;9.40;99.90;;;;;;5093373;28;20086;-81
2021/03/15 12:17:50;;;;;;;5.50;3.90;;;9.80;99.90;;;;;;5094078;28;20042;-81
2021/03/15 12:20:16;;;;;;;6.85;4.68;;;9.90;99.90;;;;;;5094818;28;20118;-81
2021/03/15 12:22:42;;;;;;;3.50;3.13;;;9.70;99.90;;;;;;5095070;28;20089;-81
2021/03/15 12:25:08;;;;;;;8.88;4.63;;;9.40;99.90;;;;;;5095017;28;20605;-81
2021/03/15 12:27:34;;;;;;;5.00;3.38;;;9.50;99.90;;;;;;5095126;28;20047;-81
2021/03/15 12:30:00;;;;;;;5.35;4.45;;;9.40;99.90;;;;;;5094309;28;20028;-87
2021/03/15 12:32:26;;;;;;;8.80;3.53;;;9.40;99.90;;;;;;5094729;28;20028;-82
2021/03/15 12:34:52;;;;;;;3.60;2.80;;;9.30;99.90;;;;;;5094972;28;20483;-82
2021/03/15 12:37:18;;;;;;;4.53;3.15;;;9.40;99.90;;;;;;5094982;28;20031;-83
2021/03/15 12:39:44;;;;;;;4.82;4.20;;;9.30;99.90;;;;;;5094403;28;20024;-83
2021/03/15 12:42:09;;;;;;;6.38;4.40;;;9.30;99.90;;;;;;5076628;28;20043;-83
2021/03/15 12:44:35;;;;;;;4.80;3.60;;;9.30;99.90;;;;;;5093512;28;20017;-83
2021/03/15 12:47:01;;;;;;;5.35;3.72;;;9.20;99.90;;;;;;5094647;28;20365;-83
2021/03/15 12:49:26;;;;;;;4.20;3.50;;;9.30;99.90;;;;;;5094880;28;20024;-83
2021/03/15 12:51:52;;;;;;;6.15;3.13;;;9.50;99.90;;;;;;5094593;28;20028;-84
2021/03/15 12:54:18;;;;;;;5.57;3.58;;;9.50;99.90;;;;;;5076285;28;20032;-81
2021/03/15 12:56:43;;;;;;;8.18;4.40;;;10.00;99.90;;;;;;5094819;28;20052;-79
2021/03/15 12:59:09;;;;;;;5.82;4.35;;;10.40;99.90;;;;;;5094842;28;20073;-78
2021/03/15 13:01:34;;;;;;;7.22;3.75;;;10.70;99.90;;;;;;5094656;28;20369;-80
2021/03/15 13:04:00;;;;;;;6.50;4.32;;;10.80;99.90;;;;;;5094083;28;20048;-80
2021/03/15 13:06:26;;;;;;;7.30;4.43;;;11.10;99.90;;;;;;5094113;28;20024;-80
2021/03/15 13:08:52;;;;;;;5.63;3.80;;;10.90;99.90;;;;;;5076010;28;20024;-79
2021/03/15 13:11:18;;;;;;;4.95;3.70;;;10.50;99.90;;;;;;5056711;28;20518;-79